Terminal Aerodrome Forecast
Issued by NWS Melbourne, FL

Home | Current Version | Previous Version | Text Only | Print | Product List | Glossary On
Versions: 1 2 3 4 5 6 7 8 9 10 11 12
000
FTUS42 KMLB 231700
TAFVRB
TAF
KVRB 231727Z 2318/2418 06008KT P6SM SCT045
     FM240100 VRB03KT P6SM FEW250
     FM241400 32006KT P6SM FEW040=

USA.gov is the U.S. government's official web portal to all federal, state and local government web resources and services.